Time;durP1;ratioP1;P1;durP2;ratioP2;P2;SDS_P1;SDS_P2;PMS_P1;PMS_P2;Temp;Humidity;BMP_temperature;BMP_pressure;BME280_temperature;BME280_humidity;BME280_pressure;Samples;Min_cycle;Max_cycle;Signal;HPM_P1;HPM_P2
2022/04/03 00:01:04;;;;;;;;;14.40;12.40;;;;;7.82;49.49;98009.13;6252120;27;98507;-70
2022/04/03 00:04:08;;;;;;;;;15.00;13.00;;;;;7.81;49.48;98007.50;6288004;27;98029;-70
2022/04/03 00:07:11;;;;;;;;;12.00;12.00;;;;;7.82;49.54;98009.13;6286357;27;97457;-72
2022/04/03 00:10:15;;;;;;;;;12.00;12.00;;;;;7.77;49.66;97998.25;6268888;27;97487;-70
2022/04/03 00:13:20;;;;;;;;;11.20;10.60;;;;;7.84;49.51;98006.22;6287286;27;96566;-70
2022/04/03 00:16:23;;;;;;;;;16.20;14.00;;;;;7.79;49.79;98004.22;6287900;27;97808;-70
2022/04/03 00:19:27;;;;;;;;;16.50;16.50;;;;;7.78;49.68;98026.72;6286902;27;97963;-70
2022/04/03 00:22:30;;;;;;;;;18.80;16.40;;;;;7.76;49.59;98004.69;6269394;27;97068;-70
2022/04/03 00:25:34;;;;;;;;;18.80;16.80;;;;;7.74;49.50;98014.00;6268329;27;97062;-71
2022/04/03 00:28:39;;;;;;;;;20.00;18.40;;;;;7.73;49.44;98004.28;6273929;27;99972;-70
2022/04/03 00:31:42;;;;;;;;;19.80;17.80;;;;;7.76;49.47;98011.91;6285375;27;97019;-70
2022/04/03 00:34:45;;;;;;;;;17.40;16.00;;;;;7.74;49.31;98008.63;6306477;27;96387;-70
2022/04/03 00:37:49;;;;;;;;;24.00;22.00;;;;;7.66;49.51;98004.41;6311506;27;97172;-71
2022/04/03 00:40:52;;;;;;;;;23.60;19.60;;;;;7.64;49.23;97995.75;6300403;27;96587;-70
2022/04/03 00:43:59;;;;;;;;;23.33;21.33;;;;;7.71;48.85;98007.22;6287811;27;97425;-71
2022/04/03 00:47:03;;;;;;;;;26.40;22.40;;;;;7.79;48.69;98011.44;6288110;27;98032;-69
2022/04/03 00:50:07;;;;;;;;;22.60;19.60;;;;;7.79;48.41;98014.97;6268200;27;97730;-71
2022/04/03 00:53:11;;;;;;;;;25.00;21.00;;;;;7.74;47.83;98012.13;6286531;27;97438;-70
2022/04/03 00:56:15;;;;;;;;;24.20;21.00;;;;;7.81;47.27;98018.25;6286716;27;98103;-70
2022/04/03 00:59:20;;;;;;;;;27.00;25.00;;;;;7.80;46.79;98018.47;6270674;27;97502;-70
2022/04/03 01:02:23;;;;;;;;;23.00;20.50;;;;;7.85;46.27;98021.28;6288694;27;97157;-70
2022/04/03 01:05:26;;;;;;;;;22.40;20.40;;;;;7.90;46.05;98012.56;6270903;27;97790;-70
2022/04/03 01:08:29;;;;;;;;;24.00;21.50;;;;;7.84;45.27;98023.16;6288963;27;96654;-69
2022/04/03 01:11:33;;;;;;;;;20.00;18.00;;;;;7.80;45.31;98021.16;6272504;27;96633;-70
2022/04/03 01:14:40;;;;;;;;;23.00;19.00;;;;;7.64;45.07;98011.00;6271206;27;99585;-70
2022/04/03 01:17:43;;;;;;;;;18.20;16.00;;;;;7.46;44.61;98001.13;6290141;27;96417;-70
2022/04/03 01:20:47;;;;;;;;;17.80;16.80;;;;;7.73;44.46;98017.72;6290986;27;97504;-69
2022/04/03 01:23:50;;;;;;;;;19.00;18.00;;;;;7.75;44.29;98023.69;6270804;27;96477;-70
2022/04/03 01:26:57;;;;;;;;;17.33;17.33;;;;;7.72;44.11;98027.63;6274944;27;96765;-69
2022/04/03 01:30:00;;;;;;;;;20.00;17.00;;;;;7.69;44.11;98030.75;6270782;27;98092;-70
2022/04/03 01:33:04;;;;;;;;;17.00;16.00;;;;;7.63;43.98;98020.09;6290227;27;97491;-69
2022/04/03 01:36:07;;;;;;;;;17.00;15.00;;;;;7.63;44.04;98028.16;6271010;27;98631;-70
2022/04/03 01:39:11;;;;;;;;;15.40;13.00;;;;;7.57;44.05;98029.88;6269655;27;98564;-70
2022/04/03 01:42:16;;;;;;;;;14.20;12.00;;;;;7.50;44.08;98017.56;6254901;27;100034;-69
2022/04/03 01:45:21;;;;;;;;;18.00;14.20;;;;;7.56;44.04;98032.78;6275309;27;97024;-70
2022/04/03 01:48:24;;;;;;;;;18.00;15.00;;;;;7.46;44.32;98030.63;6264508;27;97011;-69
2022/04/03 01:51:28;;;;;;;;;15.00;14.00;;;;;7.49;44.20;98032.84;6266694;27;99933;-70
2022/04/03 01:54:31;;;;;;;;;14.00;12.80;;;;;7.44;44.26;98035.38;6272751;27;97815;-69
2022/04/03 01:57:36;;;;;;;;;14.00;13.00;;;;;7.37;44.30;98040.00;6291650;27;97982;-70
2022/04/03 02:00:40;;;;;;;;;13.20;12.60;;;;;7.32;44.17;98037.16;6271307;27;99530;-70
2022/04/03 02:03:45;;;;;;;;;13.40;11.40;;;;;7.32;44.08;98046.03;6290915;27;97576;-69
2022/04/03 02:06:51;;;;;;;;;13.00;12.00;;;;;7.28;43.99;98046.69;6257391;27;99443;-70
2022/04/03 02:09:54;;;;;;;;;12.00;11.00;;;;;7.25;43.76;98049.78;6253301;27;97289;-70
2022/04/03 02:12:59;;;;;;;;;13.00;11.00;;;;;7.21;43.66;98049.41;6271937;27;97449;-70
2022/04/03 02:16:02;;;;;;;;;12.00;10.00;;;;;7.21;43.75;98049.41;6290035;27;96460;-70
2022/04/03 02:19:05;;;;;;;;;12.33;11.33;;;;;7.21;43.92;98044.06;6287673;27;96954;-71
2022/04/03 02:22:09;;;;;;;;;13.00;11.80;;;;;7.21;43.84;98049.41;6271171;27;96460;-70
2022/04/03 02:25:13;;;;;;;;;15.00;13.25;;;;;7.22;43.33;98050.25;6290502;27;97653;-70
2022/04/03 02:28:18;;;;;;;;;13.80;11.20;;;;;7.19;43.28;98053.34;6269649;27;98360;-70
2022/04/03 02:31:22;;;;;;;;;11.20;10.00;;;;;7.14;43.60;98050.50;6291670;27;97410;-70
2022/04/03 02:34:26;;;;;;;;;11.40;10.00;;;;;7.12;43.53;98055.28;6271216;27;98195;-69
2022/04/03 02:37:29;;;;;;;;;10.00;9.40;;;;;7.05;43.22;98057.19;6287041;27;97404;-70
2022/04/03 02:40:32;;;;;;;;;10.00;8.00;;;;;7.03;43.52;98054.75;6280981;27;96832;-70
2022/04/03 02:43:37;;;;;;;;;11.00;10.00;;;;;6.99;43.56;98053.53;6269824;27;98550;-69
2022/04/03 02:46:41;;;;;;;;;14.00;11.00;;;;;6.99;43.70;98058.88;6289888;27;97415;-69
2022/04/03 02:49:44;;;;;;;;;11.40;11.00;;;;;6.96;43.64;98070.03;6290410;27;97035;-70
2022/04/03 02:52:48;;;;;;;;;9.20;7.60;;;;;6.92;43.23;98064.31;6292008;27;96815;-69
2022/04/03 02:55:51;;;;;;;;;12.00;10.40;;;;;6.88;43.34;98073.81;6289416;27;97996;-70
2022/04/03 02:58:56;;;;;;;;;12.00;11.00;;;;;6.86;43.45;98083.94;6252845;27;99451;-70
2022/04/03 03:01:59;;;;;;;;;11.00;10.00;;;;;6.91;43.39;98094.81;6274854;27;98632;-69
2022/04/03 03:05:04;;;;;;;;;11.00;9.00;;;;;6.86;43.28;98091.16;6264819;27;97354;-70
2022/04/03 03:08:07;;;;;;;;;9.00;8.00;;;;;6.80;43.47;98094.69;6266883;27;99612;-69
2022/04/03 03:11:11;;;;;;;;;14.00;12.00;;;;;6.78;43.50;98086.88;6272380;27;97008;-69
2022/04/03 03:14:18;;;;;;;;;11.75;10.75;;;;;6.75;43.52;98095.34;6270396;27;97734;-69
2022/04/03 03:17:22;;;;;;;;;12.00;11.60;;;;;6.72;43.50;98098.47;6258732;27;97000;-68
2022/04/03 03:20:25;;;;;;;;;11.40;10.00;;;;;6.76;43.65;98105.03;6276474;27;99019;-70
2022/04/03 03:23:29;;;;;;;;;13.00;11.00;;;;;6.76;43.46;98099.66;6314525;27;97375;-70
2022/04/03 03:26:32;;;;;;;;;10.00;10.00;;;;;6.71;43.46;98107.53;6258266;27;97014;-70
2022/04/03 03:29:38;;;;;;;;;10.00;9.00;;;;;6.72;43.48;98106.50;6270795;27;97068;-70
2022/04/03 03:32:41;;;;;;;;;9.00;8.40;;;;;6.76;43.52;98109.56;6274524;27;97103;-68
2022/04/03 03:35:47;;;;;;;;;11.60;10.60;;;;;6.65;43.49;98110.22;6272249;27;96637;-70
2022/04/03 03:38:51;;;;;;;;;10.20;9.20;;;;;6.68;43.21;98116.00;6264142;27;99464;-70
2022/04/03 03:41:55;;;;;;;;;10.00;9.00;;;;;6.70;43.20;98119.28;6285027;27;97256;-70
2022/04/03 03:45:01;;;;;;;;;11.80;10.40;;;;;6.70;42.88;98121.94;6286818;27;97034;-70
2022/04/03 03:48:05;;;;;;;;;10.00;10.00;;;;;6.69;43.19;98120.31;6282442;27;97349;-69
2022/04/03 03:51:08;;;;;;;;;8.00;8.00;;;;;6.66;42.73;98125.28;6271442;27;97013;-69
2022/04/03 03:54:12;;;;;;;;;8.20;8.20;;;;;6.61;43.05;98135.81;6289419;27;96698;-69
2022/04/03 03:57:15;;;;;;;;;11.00;10.00;;;;;6.58;43.04;98141.59;6287371;27;96583;-70
2022/04/03 04:00:21;;;;;;;;;10.20;10.20;;;;;6.53;42.80;98147.59;6286722;27;97782;-69
2022/04/03 04:03:24;;;;;;;;;8.00;8.00;;;;;6.44;42.66;98147.03;6247480;27;98637;-69
2022/04/03 04:06:28;;;;;;;;;9.00;9.00;;;;;6.39;42.67;98130.78;6281399;27;98096;-69
2022/04/03 04:09:31;;;;;;;;;9.00;8.40;;;;;6.43;42.88;98155.28;6288699;27;96292;-70
2022/04/03 04:12:35;;;;;;;;;11.00;10.00;;;;;6.35;43.02;98159.00;6283785;27;96632;-70
2022/04/03 04:15:39;;;;;;;;;10.00;9.40;;;;;6.29;43.06;98159.88;6269165;27;96634;-70
2022/04/03 04:18:42;;;;;;;;;8.00;8.00;;;;;6.34;42.96;98161.91;6269133;27;97150;-71
2022/04/03 04:21:46;;;;;;;;;9.00;8.00;;;;;6.39;42.73;98170.13;6283282;27;97933;-70
2022/04/03 04:24:49;;;;;;;;;11.00;9.00;;;;;6.32;42.93;98172.00;6288897;27;97129;-70
2022/04/03 04:27:53;;;;;;;;;9.00;9.00;;;;;6.16;42.88;98149.19;6251235;27;98382;-69
2022/04/03 04:30:58;;;;;;;;;10.00;9.00;;;;;6.31;42.99;98173.00;6281988;27;97230;-70
2022/04/03 04:34:03;;;;;;;;;10.00;10.00;;;;;6.32;42.94;98180.03;6274758;27;97471;-70
2022/04/03 04:37:06;;;;;;;;;12.40;10.40;;;;;6.24;42.92;98177.59;6271080;27;97447;-70
2022/04/03 04:40:11;;;;;;;;;9.60;9.00;;;;;6.23;42.95;98183.97;6267673;27;97351;-69
2022/04/03 04:43:14;;;;;;;;;8.60;7.20;;;;;6.24;42.77;98196.31;6276775;27;97039;-70
2022/04/03 04:46:20;;;;;;;;;9.00;8.40;;;;;6.22;43.44;98201.88;6302705;27;96589;-69
2022/04/03 04:49:24;;;;;;;;;10.00;9.00;;;;;6.23;43.43;98202.69;6290152;27;97163;-70
2022/04/03 04:52:27;;;;;;;;;8.33;7.33;;;;;5.96;43.57;98165.31;6290923;27;97121;-70
2022/04/03 04:55:34;;;;;;;;;14.00;12.00;;;;;6.29;43.77;98208.06;6278026;27;98361;-70
2022/04/03 04:58:37;;;;;;;;;10.00;9.50;;;;;6.34;44.02;98218.13;6290825;27;99454;-71
2022/04/03 05:01:41;;;;;;;;;8.60;8.60;;;;;6.31;43.64;98222.03;6290343;27;97526;-70
2022/04/03 05:04:45;;;;;;;;;12.60;11.00;;;;;6.23;43.50;98184.78;6291083;27;96760;-69
2022/04/03 05:07:51;;;;;;;;;13.00;11.00;;;;;6.54;43.27;98221.56;6254711;27;97114;-70
2022/04/03 05:10:54;;;;;;;;;12.00;12.00;;;;;6.51;43.13;98222.78;6255528;27;99456;-69
2022/04/03 05:13:59;;;;;;;;;12.20;10.20;;;;;6.58;43.39;98233.47;6292223;27;96522;-70
2022/04/03 05:17:05;;;;;;;;;10.00;9.00;;;;;6.55;43.30;98228.53;6290437;27;98029;-70
2022/04/03 05:20:09;;;;;;;;;11.80;11.80;;;;;6.69;43.28;98235.50;6292074;27;97554;-70
2022/04/03 05:23:13;;;;;;;;;11.00;10.00;;;;;6.75;43.20;98248.03;6294450;27;96410;-69
2022/04/03 05:26:17;;;;;;;;;9.40;9.00;;;;;6.80;42.80;98250.06;6291222;27;97490;-69
2022/04/03 05:29:20;;;;;;;;;10.00;9.00;;;;;6.91;42.81;98262.78;6291411;27;97460;-70
2022/04/03 05:32:30;;;;;;;;;11.00;10.00;;;;;6.97;42.88;98261.94;6270992;27;98545;-69
2022/04/03 05:35:33;;;;;;;;;9.00;8.75;;;;;7.00;42.43;98272.22;6274160;27;96369;-70
2022/04/03 05:38:36;;;;;;;;;13.60;11.60;;;;;7.04;42.21;98276.13;6281351;27;98734;-69
2022/04/03 05:41:41;;;;;;;;;11.00;10.60;;;;;7.10;41.96;98272.59;6291610;27;97101;-69
2022/04/03 05:44:44;;;;;;;;;12.25;11.25;;;;;7.23;41.76;98287.81;6289780;27;97443;-68
2022/04/03 05:47:48;;;;;;;;;10.40;9.00;;;;;7.28;41.66;98283.41;6281895;27;96627;-70
2022/04/03 05:50:52;;;;;;;;;10.80;9.20;;;;;7.28;41.02;98288.78;6287742;27;96977;-69
2022/04/03 05:53:55;;;;;;;;;9.00;8.00;;;;;7.31;41.24;98298.25;6267282;27;97422;-70
2022/04/03 05:56:58;;;;;;;;;12.00;11.00;;;;;7.30;41.31;98293.94;6261589;27;97920;-69
2022/04/03 06:00:01;;;;;;;;;10.25;9.25;;;;;7.48;41.42;98301.25;6281026;27;96713;-70
2022/04/03 06:03:13;;;;;;;;;9.75;9.00;;;;;7.57;40.63;98308.84;6266896;27;97513;-70
2022/04/03 06:06:16;;;;;;;;;10.00;9.50;;;;;7.59;40.43;98306.75;6265148;27;96551;-70
2022/04/03 06:09:20;;;;;;;;;10.00;9.33;;;;;7.66;40.54;98310.22;6265831;27;97527;-69
2022/04/03 06:12:23;;;;;;;;;10.60;8.60;;;;;7.69;39.96;98315.13;6268044;27;96664;-70
2022/04/03 06:15:28;;;;;;;;;9.00;8.00;;;;;7.76;40.10;98312.41;6290425;27;97748;-70
2022/04/03 06:18:33;;;;;;;;;9.00;8.25;;;;;7.80;40.00;98309.09;6283027;27;98633;-68
2022/04/03 06:21:36;;;;;;;;;11.00;10.00;;;;;7.98;39.62;98312.84;6288975;27;96629;-71
2022/04/03 06:24:39;;;;;;;;;9.25;8.00;;;;;8.08;39.44;98326.59;6270877;27;99497;-68
2022/04/03 06:27:43;;;;;;;;;10.00;9.80;;;;;8.17;39.38;98328.78;6272142;27;97473;-68
2022/04/03 06:30:47;;;;;;;;;8.60;8.20;;;;;8.30;39.02;98327.09;6287893;27;97342;-70
2022/04/03 06:33:52;;;;;;;;;10.60;8.00;;;;;8.44;38.65;98333.97;6288127;27;96601;-70
2022/04/03 06:36:55;;;;;;;;;9.50;8.00;;;;;8.62;38.77;98329.44;6270809;27;97366;-69
2022/04/03 06:39:58;;;;;;;;;10.40;9.40;;;;;8.84;38.03;98331.69;6288345;27;97392;-70
2022/04/03 06:43:02;;;;;;;;;10.00;8.40;;;;;9.02;37.68;98345.94;6285630;27;96734;-69
2022/04/03 06:46:05;;;;;;;;;9.00;7.75;;;;;9.03;37.42;98339.53;6245492;27;97187;-69
2022/04/03 06:49:10;;;;;;;;;11.50;10.50;;;;;9.12;37.59;98345.41;6244652;27;97580;-68
2022/04/03 06:52:14;;;;;;;;;9.00;8.00;;;;;9.17;37.40;98353.63;6275026;27;98575;-70
2022/04/03 06:55:17;;;;;;;;;12.00;11.20;;;;;9.20;37.51;98353.16;6292310;27;96862;-68
2022/04/03 06:58:20;;;;;;;;;12.60;10.60;;;;;9.18;37.69;98351.75;6253201;27;97916;-69
2022/04/03 07:01:28;;;;;;;;;13.00;11.60;;;;;9.31;37.69;98356.97;6287705;27;97383;-69
2022/04/03 07:04:33;;;;;;;;;10.00;9.00;;;;;9.50;37.22;98367.47;6290613;27;97599;-69
2022/04/03 07:07:36;;;;;;;;;10.00;10.00;;;;;9.62;36.70;98366.72;6267493;27;97163;-71
2022/04/03 07:13:39;;;;;;;;;13.00;12.00;;;;;9.81;36.75;98371.00;6168582;27;96435;-68
2022/04/03 07:16:42;;;;;;;;;15.00;11.60;;;;;10.02;36.90;98381.22;6247376;27;98680;-67
2022/04/03 07:19:46;;;;;;;;;10.40;10.00;;;;;10.29;36.11;98387.06;6285837;27;97467;-66
2022/04/03 07:22:49;;;;;;;;;10.00;10.00;;;;;10.40;35.72;98386.28;6280998;27;98943;-68
2022/04/03 07:25:57;;;;;;;;;10.00;10.00;;;;;10.65;35.64;98388.75;6297262;27;96555;-68
2022/04/03 07:29:01;;;;;;;;;13.00;12.00;;;;;10.57;35.34;98398.00;6282564;27;96937;-68
2022/04/03 07:32:06;;;;;;;;;13.00;12.00;;;;;10.75;35.36;98397.88;6290894;27;98012;-68
2022/04/03 07:35:10;;;;;;;;;10.75;9.25;;;;;10.83;34.51;98400.22;6282759;27;96567;-67
2022/04/03 07:38:14;;;;;;;;;12.40;11.00;;;;;10.94;35.22;98406.69;6276692;27;97104;-69
2022/04/03 07:41:19;;;;;;;;;10.80;9.00;;;;;11.04;34.46;98411.47;6287082;27;97642;-68
2022/04/03 07:44:23;;;;;;;;;11.00;10.00;;;;;11.28;33.58;98413.09;6277816;27;97838;-67
2022/04/03 07:47:27;;;;;;;;;12.00;11.00;;;;;11.43;33.58;98423.38;6281069;27;96849;-68
2022/04/03 07:50:30;;;;;;;;;10.50;10.00;;;;;11.63;32.82;98424.59;6269991;27;96429;-68
2022/04/03 07:53:34;;;;;;;;;10.00;9.20;;;;;11.77;32.37;98429.78;6291218;27;97507;-67
2022/04/03 07:56:37;;;;;;;;;9.00;8.00;;;;;11.95;32.42;98438.50;6282570;27;96978;-66
2022/04/03 07:59:42;;;;;;;;;11.60;10.60;;;;;12.04;31.93;98441.63;6274651;27;98419;-68
2022/04/03 08:02:46;;;;;;;;;9.20;8.00;;;;;12.15;31.74;98438.06;6279135;27;96893;-70
2022/04/03 08:05:50;;;;;;;;;10.00;9.40;;;;;12.14;31.97;98426.44;6280011;27;97730;-67
2022/04/03 08:08:53;;;;;;;;;11.00;10.80;;;;;12.29;30.75;98452.91;6279182;27;96593;-68
2022/04/03 08:11:57;;;;;;;;;11.00;10.00;;;;;12.31;31.28;98458.06;6215563;27;97191;-68
2022/04/03 08:15:01;;;;;;;;;12.40;11.00;;;;;12.36;31.24;98452.75;6174700;28;96993;-69
2022/04/03 08:18:05;;;;;;;;;9.20;8.20;;;;;12.51;30.63;98458.44;6174063;28;96871;-67
2022/04/03 08:21:11;;;;;;;;;10.00;9.00;;;;;12.55;30.12;98465.81;6159100;27;97035;-69
2022/04/03 08:24:15;;;;;;;;;10.80;9.80;;;;;12.61;29.66;98465.91;6149221;28;96451;-69
2022/04/03 08:27:43;;;;;;;;;10.00;9.00;;;;;12.80;29.86;98473.53;6156048;28;97108;-70
2022/04/03 08:30:49;;;;;;;;;8.00;7.00;;;;;13.03;29.67;98473.34;6153243;28;98182;-68
2022/04/03 08:33:53;;;;;;;;;7.80;7.00;;;;;13.14;28.16;98474.34;6159018;28;96955;-68
2022/04/03 08:36:56;;;;;;;;;8.00;7.00;;;;;13.10;28.10;98475.88;6160788;28;96422;-69
2022/04/03 08:39:59;;;;;;;;;7.00;7.00;;;;;13.30;28.87;98478.09;6158656;27;100245;-70
2022/04/03 08:43:04;;;;;;;;;9.00;8.00;;;;;13.50;28.80;98482.97;6163317;27;96883;-68
2022/04/03 08:46:09;;;;;;;;;7.75;7.00;;;;;13.76;27.96;98487.66;6148306;28;97892;-69
2022/04/03 08:49:13;;;;;;;;;8.60;8.60;;;;;14.09;28.05;98492.09;6171575;27;97664;-68
2022/04/03 08:52:17;;;;;;;;;8.00;7.00;;;;;14.23;26.95;98493.34;6159155;28;97794;-69
2022/04/03 08:55:22;;;;;;;;;6.20;6.00;;;;;14.48;25.44;98490.94;6148960;28;98381;-68
2022/04/03 08:58:27;;;;;;;;;8.00;7.40;;;;;14.63;26.27;98490.25;6167011;28;97741;-69
2022/04/03 09:01:31;;;;;;;;;7.40;6.40;;;;;14.89;26.10;98489.41;6140088;28;98350;-66
2022/04/03 09:04:38;;;;;;;;;9.00;7.00;;;;;15.11;25.82;98500.16;6144613;28;96391;-68
2022/04/03 09:07:41;;;;;;;;;9.00;8.00;;;;;15.04;25.31;98497.69;6155307;28;96876;-69
2022/04/03 09:11:04;;;;;;;;;6.20;6.20;;;;;14.99;24.05;98488.69;6141638;28;97985;-68
2022/04/03 09:14:12;;;;;;;;;6.40;5.40;;;;;14.90;23.63;98506.53;6134721;28;97150;-69
2022/04/03 09:17:32;;;;;;;;;5.00;5.00;;;;;14.90;24.11;98506.53;6146524;27;98419;-68
2022/04/03 09:20:37;;;;;;;;;4.00;4.00;;;;;14.59;23.33;98508.97;6146232;28;96455;-67
2022/04/03 09:23:56;;;;;;;;;4.00;4.00;;;;;14.38;24.58;98509.00;6150420;28;97285;-67
2022/04/03 09:27:00;;;;;;;;;5.25;5.25;;;;;14.07;25.00;98514.06;6145495;28;96477;-69
2022/04/03 09:30:06;;;;;;;;;6.00;6.00;;;;;13.75;23.91;98530.19;6137731;28;97342;-68
2022/04/03 09:33:15;;;;;;;;;5.00;5.00;;;;;13.70;23.68;98518.44;6153693;28;96652;-68
2022/04/03 09:36:19;;;;;;;;;3.00;3.00;;;;;13.81;24.34;98528.38;6140226;28;99635;-67
2022/04/03 09:39:24;;;;;;;;;6.00;5.00;;;;;13.89;24.50;98527.91;6151296;28;97474;-69
2022/04/03 09:42:29;;;;;;;;;6.00;5.00;;;;;13.95;24.34;98529.63;6124890;28;96764;-68
2022/04/03 09:45:44;;;;;;;;;4.20;4.20;;;;;14.13;23.92;98531.19;6157251;28;97723;-67
2022/04/03 09:48:50;;;;;;;;;4.75;4.00;;;;;14.33;23.10;98536.84;6152969;28;96470;-69
2022/04/03 09:51:53;;;;;;;;;6.00;6.00;;;;;14.35;23.26;98536.59;6156677;27;99370;-68
2022/04/03 09:54:56;;;;;;;;;6.60;5.60;;;;;14.35;23.36;98531.19;6159595;28;96289;-69
2022/04/03 09:58:05;;;;;;;;;5.40;4.00;;;;;14.42;22.99;98538.06;6142897;28;96692;-67
2022/04/03 10:01:26;;;;;;;;;7.00;6.40;;;;;14.92;23.03;98536.94;6158700;28;97341;-68
2022/04/03 10:04:35;;;;;;;;;5.00;4.75;;;;;15.36;22.16;98546.50;6161761;28;97483;-69
2022/04/03 10:07:40;;;;;;;;;6.00;6.00;;;;;16.03;22.11;98534.97;6162207;28;96394;-67
2022/04/03 10:10:45;;;;;;;;;5.20;4.80;;;;;16.10;21.81;98537.44;6159247;28;96816;-67
2022/04/03 10:13:49;;;;;;;;;7.40;7.40;;;;;16.47;22.27;98543.56;6161001;28;97947;-67
2022/04/03 10:16:52;;;;;;;;;8.00;7.00;;;;;16.48;22.09;98545.19;6160845;28;96643;-67
2022/04/03 10:19:57;;;;;;;;;6.40;6.00;;;;;16.50;21.21;98542.22;6157796;28;96892;-67
2022/04/03 10:23:08;;;;;;;;;5.20;5.00;;;;;16.40;20.99;98540.28;6157057;28;96448;-68
2022/04/03 10:26:16;;;;;;;;;7.00;6.75;;;;;16.25;21.38;98551.94;6150054;28;96441;-70
2022/04/03 10:29:20;;;;;;;;;7.40;6.40;;;;;16.34;22.88;98552.22;6150316;28;97465;-69
2022/04/03 10:32:28;;;;;;;;;5.00;4.60;;;;;16.64;22.49;98557.81;6228403;27;97636;-69
2022/04/03 10:35:35;;;;;;;;;7.00;6.00;;;;;16.79;21.03;98557.00;6142806;28;96652;-69
2022/04/03 10:38:40;;;;;;;;;6.00;5.00;;;;;17.08;21.14;98555.41;6158782;28;96734;-70
2022/04/03 10:41:43;;;;;;;;;6.00;6.00;;;;;17.41;19.72;98556.75;6161755;28;97865;-70
2022/04/03 10:45:28;;;;;;;;;7.00;5.50;;;;;17.53;19.44;98553.75;6158157;27;97817;-68
2022/04/03 10:48:32;;;;;;;;;6.60;6.40;;;;;17.67;19.64;98550.22;6137835;28;96268;-68
2022/04/03 10:51:36;;;;;;;;;7.60;7.60;;;;;17.44;19.35;98549.97;6159915;28;96536;-69
2022/04/03 10:54:43;;;;;;;;;6.00;5.00;;;;;17.43;19.69;98559.22;6160717;27;97011;-70
2022/04/03 10:57:48;;;;;;;;;5.00;5.00;;;;;17.40;20.13;98563.28;6160633;28;96290;-68
2022/04/03 11:00:52;;;;;;;;;6.00;6.00;;;;;17.29;20.24;98557.06;6175886;28;96751;-67
2022/04/03 11:04:02;;;;;;;;;7.40;6.00;;;;;17.12;20.59;98564.66;6159267;28;96810;-67
2022/04/03 11:07:25;;;;;;;;;5.40;5.00;;;;;17.05;20.91;98560.59;6181095;27;97135;-68
2022/04/03 11:10:48;;;;;;;;;7.00;7.00;;;;;16.25;21.60;98565.53;6289252;27;96643;-69
2022/04/03 11:13:51;;;;;;;;;7.00;6.00;;;;;15.82;21.88;98569.41;6289008;27;96782;-69
2022/04/03 11:16:56;;;;;;;;;7.00;6.00;;;;;15.42;22.66;98563.69;6179437;27;96317;-68
2022/04/03 11:20:02;;;;;;;;;6.00;6.00;;;;;15.19;23.62;98559.44;6135380;28;96527;-67
2022/04/03 11:23:10;;;;;;;;;6.00;6.00;;;;;14.77;24.22;98563.91;6135849;28;96830;-68
2022/04/03 11:26:15;;;;;;;;;9.00;8.20;;;;;14.84;24.17;98565.38;6148897;28;96445;-68
2022/04/03 11:29:18;;;;;;;;;8.00;8.00;;;;;14.53;24.16;98564.22;6150777;28;97739;-69
2022/04/03 11:32:22;;;;;;;;;9.75;8.00;;;;;14.42;24.86;98573.31;6150023;28;96743;-69
2022/04/03 11:35:37;;;;;;;;;7.40;7.00;;;;;14.53;23.90;98569.66;6139900;28;96952;-68
2022/04/03 11:38:44;;;;;;;;;6.80;6.80;;;;;14.84;23.89;98569.97;6155579;28;96760;-67
2022/04/03 11:41:52;;;;;;;;;8.40;8.00;;;;;14.67;23.95;98570.88;6134452;28;97679;-69
2022/04/03 11:44:55;;;;;;;;;7.00;7.00;;;;;14.38;24.72;98560.53;6126562;28;98418;-70
2022/04/03 11:48:14;;;;;;;;;9.40;7.40;;;;;14.06;25.52;98572.06;6155437;28;97446;-69
2022/04/03 11:51:19;;;;;;;;;9.20;8.20;;;;;13.57;25.94;98578.41;6157925;28;96278;-68
2022/04/03 11:54:25;;;;;;;;;9.00;8.00;;;;;13.54;25.64;98560.75;6175909;27;97581;-67
2022/04/03 11:57:28;;;;;;;;;11.00;10.00;;;;;13.40;26.33;98573.00;6141630;28;98379;-70
2022/04/03 12:00:32;;;;;;;;;8.00;7.40;;;;;13.72;25.51;98579.47;6161068;28;97719;-69
2022/04/03 12:03:39;;;;;;;;;8.40;7.40;;;;;13.86;25.79;98571.78;6160957;28;96716;-68
2022/04/03 12:06:45;;;;;;;;;7.00;7.00;;;;;13.80;25.32;98559.22;6151774;28;97290;-73
2022/04/03 12:09:50;;;;;;;;;6.00;6.00;;;;;14.37;24.59;98565.13;6151534;28;96497;-70
2022/04/03 12:12:54;;;;;;;;;10.60;9.00;;;;;14.84;24.42;98575.41;6154930;27;96456;-70
2022/04/03 12:15:57;;;;;;;;;8.00;8.00;;;;;15.14;24.42;98572.97;6276374;27;96347;-70
2022/04/03 12:19:02;;;;;;;;;8.00;8.00;;;;;15.33;23.48;98574.22;6179513;27;96892;-68
2022/04/03 12:22:08;;;;;;;;;9.00;8.60;;;;;15.41;22.54;98581.88;6152996;28;96387;-69
2022/04/03 12:25:12;;;;;;;;;9.40;8.00;;;;;15.42;22.53;98564.50;6159560;28;96719;-67
2022/04/03 12:28:16;;;;;;;;;7.60;7.00;;;;;15.26;22.98;98567.34;6142971;28;100077;-69
2022/04/03 12:31:19;;;;;;;;;8.00;7.00;;;;;14.77;24.17;98572.06;6160150;28;96826;-71
2022/04/03 12:34:23;;;;;;;;;7.00;7.00;;;;;14.65;25.35;98583.91;6161539;28;97399;-68
2022/04/03 12:37:27;;;;;;;;;7.60;7.60;;;;;14.42;24.84;98572.50;6151349;28;97042;-68
2022/04/03 12:40:32;;;;;;;;;7.00;7.00;;;;;14.38;26.04;98583.03;6149497;28;97402;-69
2022/04/03 12:43:44;;;;;;;;;8.60;8.40;;;;;14.12;26.62;98600.06;6152798;28;98092;-68
2022/04/03 12:46:48;;;;;;;;;9.00;8.80;;;;;13.67;26.55;98597.53;6141275;28;100381;-68
2022/04/03 12:50:10;;;;;;;;;9.00;9.00;;;;;13.34;26.95;98607.28;6148814;28;96589;-68
2022/04/03 12:53:15;;;;;;;;;8.20;8.00;;;;;12.82;26.90;98597.69;6157869;28;97277;-70
2022/04/03 12:58:24;;;;;;;;;10.40;10.00;;;;;12.44;28.30;98599.16;6161162;28;96653;-69
2022/04/03 12:59:51;;;;;;;;;8.50;8.50;;;;;12.31;29.02;98604.84;6154620;28;97057;-70
2022/04/03 13:02:55;;;;;;;;;7.00;6.75;;;;;12.28;29.45;98589.09;6133163;28;97827;-71
2022/04/03 13:06:01;;;;;;;;;9.00;8.00;;;;;12.25;28.39;98599.59;6151230;28;96718;-68
2022/04/03 13:09:05;;;;;;;;;8.00;7.00;;;;;12.18;29.23;98599.69;6176171;28;97433;-68
2022/04/03 13:12:10;;;;;;;;;10.00;9.00;;;;;12.39;27.79;98590.13;6157596;28;97467;-69
2022/04/03 13:15:14;;;;;;;;;8.40;7.80;;;;;12.66;26.93;98591.19;6154442;28;96919;-69
2022/04/03 13:18:18;;;;;;;;;8.00;7.00;;;;;12.75;27.00;98580.81;6148114;28;96378;-70
2022/04/03 13:21:21;;;;;;;;;7.40;7.40;;;;;12.72;25.78;98584.00;6153418;28;97091;-67
2022/04/03 13:24:27;;;;;;;;;9.20;8.00;;;;;12.47;25.22;98585.16;6148426;28;97092;-67
2022/04/03 13:27:31;;;;;;;;;7.00;7.00;;;;;12.45;24.70;98586.47;6150239;28;96668;-69
2022/04/03 13:30:35;;;;;;;;;7.20;7.20;;;;;12.30;25.09;98584.28;6156019;27;97433;-67
2022/04/03 13:33:38;;;;;;;;;9.00;9.00;;;;;12.17;25.39;98591.84;6186977;27;96635;-68
2022/04/03 13:36:42;;;;;;;;;10.00;9.00;;;;;11.95;25.48;98588.94;6160655;27;96891;-69
2022/04/03 13:39:45;;;;;;;;;7.60;7.00;;;;;11.86;26.18;98591.22;6159394;28;96293;-68
2022/04/03 13:42:50;;;;;;;;;9.00;9.00;;;;;11.66;27.09;98586.13;6160046;28;97409;-67
2022/04/03 13:46:00;;;;;;;;;10.00;9.25;;;;;11.52;27.79;98589.31;6159687;28;96825;-69
2022/04/03 13:49:05;;;;;;;;;9.50;9.00;;;;;11.67;28.21;98590.50;6143437;28;96919;-68
2022/04/03 13:52:09;;;;;;;;;10.00;9.40;;;;;11.97;27.60;98593.03;6136269;28;96702;-69
2022/04/03 13:55:13;;;;;;;;;8.00;8.00;;;;;12.10;27.96;98595.50;6144062;27;99575;-69
2022/04/03 13:58:18;;;;;;;;;7.50;7.00;;;;;11.84;27.67;98606.00;6152814;28;97453;-69
2022/04/03 14:01:22;;;;;;;;;10.00;9.00;;;;;11.84;27.97;98596.00;6143379;28;97366;-69
2022/04/03 14:04:25;;;;;;;;;11.40;11.00;;;;;11.86;27.99;98596.59;6151114;28;97309;-67
2022/04/03 14:07:29;;;;;;;;;10.00;9.40;;;;;11.85;28.44;98600.34;6161628;27;97554;-68
2022/04/03 14:10:32;;;;;;;;;8.80;8.00;;;;;12.01;28.04;98609.63;6154852;28;97389;-67
2022/04/03 14:13:37;;;;;;;;;9.00;9.00;;;;;12.26;28.69;98602.06;6156218;27;97655;-68
2022/04/03 14:16:40;;;;;;;;;11.00;10.00;;;;;12.31;28.61;98599.44;6148967;27;98432;-68
2022/04/03 14:19:43;;;;;;;;;11.00;10.00;;;;;12.06;29.60;98625.94;6144636;27;97321;-67
2022/04/03 14:22:46;;;;;;;;;11.00;9.20;;;;;11.71;30.62;98632.16;6152167;28;98063;-67
2022/04/03 14:25:50;;;;;;;;;12.00;11.00;;;;;11.33;32.26;98645.28;6141953;28;96584;-68
2022/04/03 14:28:55;;;;;;;;;12.60;10.60;;;;;11.07;33.44;98646.50;6146412;28;97244;-70